Time;durP1;ratioP1;P1;durP2;ratioP2;P2;SDS_P1;SDS_P2;PMS_P1;PMS_P2;Temp;Humidity;BMP_temperature;BMP_pressure;BME280_temperature;BME280_humidity;BME280_pressure;Samples;Min_cycle;Max_cycle;Signal;HPM_P1;HPM_P2
2021/09/25 00:00:01;;;;;;;5.13;4.68;;;;;;;16.75;66.79;95821.47;5012776;28;20206;-87
2021/09/25 00:02:28;;;;;;;4.85;4.45;;;;;;;16.70;67.17;95826.53;5013196;28;20218;-87
2021/09/25 00:04:54;;;;;;;5.00;4.60;;;;;;;16.66;67.32;95824.56;5012524;28;20202;-87
2021/09/25 00:07:21;;;;;;;5.13;4.72;;;;;;;16.61;67.41;95825.16;5012797;28;20203;-86
2021/09/25 00:09:49;;;;;;;5.18;4.78;;;;;;;16.57;67.52;95826.56;5012899;28;20207;-87
2021/09/25 00:12:16;;;;;;;4.75;4.22;;;;;;;16.57;67.83;95819.56;5012457;28;20600;-87
2021/09/25 00:14:43;;;;;;;4.85;4.45;;;;;;;16.57;67.12;95826.56;5012429;28;20211;-87
2021/09/25 00:17:12;;;;;;;5.07;4.68;;;;;;;16.56;66.63;95827.56;5012630;28;20206;-87
2021/09/25 00:19:39;;;;;;;5.20;4.72;;;;;;;16.45;67.32;95823.03;5012403;28;20206;-86
2021/09/25 00:22:06;;;;;;;4.70;4.30;;;;;;;16.50;67.05;95823.22;4995480;28;20242;-86
2021/09/25 00:24:33;;;;;;;5.10;4.65;;;;;;;16.39;67.61;95822.03;4992803;28;20198;-86
2021/09/25 00:27:01;;;;;;;4.93;4.53;;;;;;;16.35;67.88;95820.09;4993302;28;20730;-87
2021/09/25 00:29:28;;;;;;;4.88;4.47;;;;;;;16.29;68.01;95816.50;4993085;28;20210;-86
2021/09/25 00:31:54;;;;;;;5.07;4.57;;;;;;;16.35;67.44;95820.09;4992882;28;20322;-87
2021/09/25 00:34:21;;;;;;;5.00;4.50;;;;;;;16.28;68.11;95824.50;4992832;28;20203;-87
2021/09/25 00:36:48;;;;;;;5.22;4.82;;;;;;;16.17;68.13;95821.53;4992759;28;20223;-87
2021/09/25 00:39:14;;;;;;;4.97;4.57;;;;;;;16.12;68.69;95823.97;4992678;28;20204;-87
2021/09/25 00:41:41;;;;;;;4.95;4.47;;;;;;;16.17;68.93;95829.31;4992276;28;20207;-87
2021/09/25 00:44:09;;;;;;;4.65;4.35;;;;;;;16.20;69.04;95828.91;4992055;28;20199;-87
2021/09/25 00:46:36;;;;;;;6.50;4.75;;;;;;;16.21;68.85;95829.72;4992356;28;20206;-86
2021/09/25 00:49:02;;;;;;;4.97;4.57;;;;;;;16.21;68.71;95825.31;4993325;28;20785;-86
2021/09/25 00:51:29;;;;;;;4.75;4.35;;;;;;;16.26;69.04;95827.31;4993122;28;20214;-86
2021/09/25 00:53:55;;;;;;;5.60;4.20;;;;;;;16.27;68.89;95821.09;4998484;28;20199;-86
2021/09/25 00:56:24;;;;;;;4.82;4.40;;;;;;;16.25;68.92;95823.09;5012590;28;20199;-86
2021/09/25 00:58:51;;;;;;;4.88;4.43;;;;;;;16.24;69.00;95822.31;5012510;28;20635;-86
2021/09/25 01:01:19;;;;;;;5.53;5.00;;;;;;;16.24;69.06;95817.09;5012420;28;20206;-86
2021/09/25 01:03:45;;;;;;;4.85;4.30;;;;;;;16.23;68.80;95817.31;5011783;28;20227;-87
2021/09/25 01:06:12;;;;;;;4.90;4.50;;;;;;;16.26;68.35;95813.50;5012456;28;20206;-87
2021/09/25 01:08:38;;;;;;;4.65;4.18;;;;;;;16.22;68.51;95821.72;5013148;28;20210;-86
2021/09/25 01:11:05;;;;;;;5.03;4.50;;;;;;;16.20;69.08;95817.72;5012773;28;20670;-87
2021/09/25 01:13:31;;;;;;;4.60;4.20;;;;;;;16.12;69.37;95812.78;5011776;28;20238;-87
2021/09/25 01:15:58;;;;;;;5.03;4.47;;;;;;;16.08;69.59;95814.16;5011760;28;20201;-87
2021/09/25 01:18:26;;;;;;;4.68;4.10;;;;;;;16.01;69.96;95816.78;5012161;28;20202;-86
2021/09/25 01:20:52;;;;;;;4.50;4.10;;;;;;;16.03;69.80;95813.97;5011963;28;20194;-86
2021/09/25 01:23:20;;;;;;;4.90;4.40;;;;;;;16.09;70.23;95808.78;5011883;28;20226;-86
2021/09/25 01:25:47;;;;;;;4.55;4.15;;;;;;;16.15;69.78;95809.75;5011927;28;20203;-86
2021/09/25 01:28:14;;;;;;;4.40;4.10;;;;;;;16.06;69.98;95810.97;5011085;28;20213;-86
2021/09/25 01:30:40;;;;;;;4.50;4.10;;;;;;;16.06;70.17;95814.38;4994444;28;20234;-86
2021/09/25 01:33:07;;;;;;;5.03;4.60;;;;;;;16.10;70.07;95812.97;4992168;28;20224;-86
2021/09/25 01:35:33;;;;;;;4.50;4.10;;;;;;;16.15;70.10;95807.97;4992059;28;20210;-87
2021/09/25 01:38:02;;;;;;;4.50;4.07;;;;;;;16.19;70.08;95816.13;4992100;28;20203;-86
2021/09/25 01:40:30;;;;;;;4.40;4.03;;;;;;;16.11;69.84;95808.56;4991946;28;20238;-86
2021/09/25 01:42:56;;;;;;;4.20;3.80;;;;;;;16.03;70.86;95813.97;4991510;28;20239;-87
2021/09/25 01:45:23;;;;;;;4.63;4.22;;;;;;;16.00;71.04;95815.19;4991499;28;20605;-87
2021/09/25 01:47:49;;;;;;;4.30;3.88;;;;;;;16.05;70.40;95812.78;4991629;28;20214;-86
2021/09/25 01:50:16;;;;;;;4.40;4.10;;;;;;;16.02;70.64;95808.00;4991478;28;20204;-87
2021/09/25 01:52:43;;;;;;;4.35;4.05;;;;;;;16.02;70.61;95813.19;4991337;28;20228;-86
2021/09/25 01:55:11;;;;;;;5.07;4.00;;;;;;;16.01;71.13;95815.97;5006170;28;20210;-87
2021/09/25 01:57:39;;;;;;;4.65;4.25;;;;;;;16.00;70.74;95811.78;5010798;28;20289;-86
2021/09/25 02:00:07;;;;;;;4.07;3.60;;;;;;;15.97;71.09;95807.03;5030578;28;20224;-87
2021/09/25 02:02:34;;;;;;;4.13;3.83;;;;;;;16.03;70.67;95819.97;5030423;28;20228;-87
2021/09/25 02:05:00;;;;;;;4.00;3.70;;;;;;;16.03;70.79;95821.78;5030384;28;20213;-86
2021/09/25 02:07:27;;;;;;;3.85;3.55;;;;;;;16.05;71.10;95817.97;5030274;28;20202;-86
2021/09/25 02:09:53;;;;;;;4.18;3.88;;;;;;;16.13;70.88;95817.75;5030092;28;20222;-86
2021/09/25 02:12:23;;;;;;;3.92;3.63;;;;;;;16.18;70.72;95817.13;5029947;28;20226;-86
2021/09/25 02:14:51;;;;;;;4.13;3.72;;;;;;;16.21;70.98;95817.50;5029893;28;20209;-86
2021/09/25 02:17:20;;;;;;;4.18;3.78;;;;;;;16.25;70.89;95810.13;5030251;28;20198;-86
2021/09/25 02:19:47;;;;;;;4.00;3.70;;;;;;;16.23;71.46;95814.72;5030247;28;20248;-86
2021/09/25 02:22:13;;;;;;;4.13;3.83;;;;;;;16.27;70.63;95810.72;5011625;28;20572;-86
2021/09/25 02:24:40;;;;;;;4.15;3.75;;;;;;;16.26;70.60;95811.72;5010527;28;20210;-86
2021/09/25 02:27:07;;;;;;;3.90;3.50;;;;;;;16.29;71.01;95810.50;5010993;28;20280;-86
2021/09/25 02:29:33;;;;;;;4.20;3.90;;;;;;;16.24;70.67;95809.31;5010880;28;20560;-86
2021/09/25 02:32:01;;;;;;;5.00;3.90;;;;;;;16.20;71.04;95812.53;5010678;28;20227;-86
2021/09/25 02:34:28;;;;;;;5.10;3.95;;;;;;;16.11;71.00;95809.38;5010153;28;20202;-86
2021/09/25 02:36:57;;;;;;;4.40;4.00;;;;;;;16.07;71.29;95810.78;5010258;28;20602;-86
2021/09/25 02:39:23;;;;;;;4.10;3.78;;;;;;;16.05;70.81;95815.38;5010182;28;20218;-86
2021/09/25 02:41:50;;;;;;;4.32;3.90;;;;;;;16.01;71.25;95809.00;5010223;28;20242;-87
2021/09/25 02:44:17;;;;;;;4.55;3.75;;;;;;;16.02;71.29;95818.38;5009851;28;20202;-87
2021/09/25 02:46:43;;;;;;;4.38;3.97;;;;;;;16.03;70.84;95822.56;5010192;28;20566;-86
2021/09/25 02:49:11;;;;;;;3.90;3.60;;;;;;;16.01;71.54;95824.56;5010087;28;20835;-86
2021/09/25 02:51:37;;;;;;;4.20;3.80;;;;;;;16.03;70.83;95819.19;5009880;28;20218;-86
2021/09/25 02:54:04;;;;;;;4.05;3.58;;;;;;;16.01;70.81;95819.38;5009545;28;20230;-87
2021/09/25 02:56:30;;;;;;;4.18;3.65;;;;;;;15.92;71.15;95818.03;5010049;28;20203;-87
2021/09/25 02:58:57;;;;;;;4.03;3.72;;;;;;;15.85;71.73;95823.22;5021106;28;20640;-87
2021/09/25 03:01:25;;;;;;;5.13;3.78;;;;;;;15.87;71.81;95823.81;5030043;28;20696;-87
2021/09/25 03:03:54;;;;;;;4.05;3.75;;;;;;;15.93;71.41;95821.41;5029916;28;20224;-86
2021/09/25 03:06:22;;;;;;;4.63;3.88;;;;;;;15.98;71.47;95824.97;5029559;28;20213;-86
2021/09/25 03:08:48;;;;;;;3.88;3.58;;;;;;;16.02;70.91;95812.38;5030005;28;20209;-87
2021/09/25 03:11:15;;;;;;;4.43;3.70;;;;;;;16.01;70.44;95821.19;5029854;28;20206;-86
2021/09/25 03:13:42;;;;;;;3.90;3.60;;;;;;;15.90;70.45;95812.22;5029378;28;20709;-86
2021/09/25 03:16:08;;;;;;;4.07;3.78;;;;;;;15.83;70.78;95816.63;5029518;28;20202;-87
2021/09/25 03:18:35;;;;;;;4.03;3.70;;;;;;;15.78;70.75;95825.03;5029533;28;20206;-86
2021/09/25 03:21:01;;;;;;;4.45;4.05;;;;;;;15.80;71.49;95824.81;5021176;28;20758;-87
2021/09/25 03:23:29;;;;;;;4.13;3.75;;;;;;;15.86;71.39;95821.41;5009771;28;20597;-86
2021/09/25 03:25:55;;;;;;;3.92;3.63;;;;;;;15.92;71.10;95818.03;5009673;28;20211;-87
2021/09/25 03:28:22;;;;;;;3.92;3.63;;;;;;;15.94;71.02;95812.63;5012896;28;20203;-87
2021/09/25 03:30:49;;;;;;;5.10;3.72;;;;;;;15.95;71.41;95811.63;5013330;28;20639;-86
2021/09/25 03:33:15;;;;;;;3.65;3.35;;;;;;;15.98;71.06;95819.78;5013206;28;20226;-86
2021/09/25 03:35:46;;;;;;;3.88;3.55;;;;;;;16.00;71.02;95817.78;5013165;28;20203;-87
2021/09/25 03:38:13;;;;;;;4.22;3.90;;;;;;;16.00;70.90;95817.78;5013170;28;20253;-86
2021/09/25 03:40:41;;;;;;;4.10;3.63;;;;;;;15.99;70.68;95818.78;5013400;28;20234;-86
2021/09/25 03:43:08;;;;;;;4.38;3.97;;;;;;;16.00;71.00;95810.00;5013144;28;20788;-87
2021/09/25 03:45:35;;;;;;;4.22;3.83;;;;;;;16.04;70.73;95813.78;5013318;28;20202;-86
2021/09/25 03:48:01;;;;;;;4.00;3.47;;;;;;;16.05;70.32;95817.19;5013304;28;20206;-87
2021/09/25 03:50:28;;;;;;;3.83;3.53;;;;;;;16.03;70.41;95804.38;5013396;28;20211;-86
2021/09/25 03:52:55;;;;;;;4.93;3.60;;;;;;;15.98;71.00;95811.19;5012914;28;20237;-86
2021/09/25 03:55:21;;;;;;;3.75;3.45;;;;;;;15.96;70.89;95808.81;5029881;28;20206;-87
2021/09/25 03:57:49;;;;;;;4.43;4.07;;;;;;;15.89;70.82;95801.03;5031953;28;20697;-87
2021/09/25 04:00:16;;;;;;;3.65;3.35;;;;;;;15.83;71.35;95803.66;5032505;28;20202;-87
2021/09/25 04:02:42;;;;;;;4.03;3.65;;;;;;;15.73;71.33;95803.28;5032388;28;20222;-86
2021/09/25 04:05:10;;;;;;;4.07;3.78;;;;;;;15.74;70.91;95808.28;5032425;28;20228;-86
2021/09/25 04:07:36;;;;;;;4.22;3.85;;;;;;;15.68;71.46;95803.09;5032026;28;20213;-87
2021/09/25 04:10:04;;;;;;;5.18;3.90;;;;;;;15.74;71.32;95807.47;5020023;28;20190;-86
2021/09/25 04:12:31;;;;;;;4.30;3.90;;;;;;;15.77;70.65;95814.88;5012530;28;20222;-87
2021/09/25 04:14:58;;;;;;;4.57;4.18;;;;;;;15.61;71.29;95818.66;5012113;28;20213;-88
2021/09/25 04:17:25;;;;;;;4.43;4.00;;;;;;;15.60;71.30;95811.06;5012428;28;20206;-86
2021/09/25 04:19:51;;;;;;;3.90;3.60;;;;;;;15.60;72.12;95816.25;5012357;28;20207;-87
2021/09/25 04:22:18;;;;;;;4.05;3.75;;;;;;;15.65;71.57;95813.88;5031025;28;20221;-87
2021/09/25 04:24:46;;;;;;;5.50;3.90;;;;;;;15.68;71.93;95818.66;5032314;28;20217;-87
2021/09/25 04:27:13;;;;;;;4.75;3.55;;;;;;;15.72;71.49;95815.47;5032551;28;20290;-86
2021/09/25 04:29:39;;;;;;;4.95;4.45;;;;;;;15.77;71.20;95810.47;5032437;28;20194;-86
2021/09/25 04:32:07;;;;;;;4.10;3.70;;;;;;;15.80;71.12;95804.84;5032555;28;20218;-87
2021/09/25 04:34:34;;;;;;;4.32;3.72;;;;;;;15.81;71.29;95800.44;5031879;28;20222;-87
2021/09/25 04:37:00;;;;;;;4.05;3.75;;;;;;;15.86;71.04;95808.44;5031934;28;20204;-87
2021/09/25 04:39:27;;;;;;;3.83;3.50;;;;;;;15.85;70.77;95806.84;5031811;28;20201;-86
2021/09/25 04:41:54;;;;;;;4.18;3.83;;;;;;;15.88;70.86;95807.25;5031663;28;20252;-87
2021/09/25 04:44:20;;;;;;;4.05;3.75;;;;;;;15.82;70.98;95802.84;5069335;22;20312;-86
2021/09/25 04:46:47;;;;;;;3.88;3.58;;;;;;;15.75;71.41;95791.69;5054201;28;20212;-87
2021/09/25 04:49:15;;;;;;;5.15;3.83;;;;;;;15.73;71.64;95787.72;5053760;28;20205;-87
2021/09/25 04:51:42;;;;;;;3.95;3.65;;;;;;;15.69;71.67;95786.50;5054064;28;20197;-88
2021/09/25 04:54:08;;;;;;;4.22;3.80;;;;;;;15.72;71.62;95788.72;5054243;28;20218;-87
2021/09/25 04:56:35;;;;;;;4.00;3.50;;;;;;;15.69;71.72;95794.28;5054524;28;20205;-88
2021/09/25 04:59:02;;;;;;;5.18;3.83;;;;;;;15.67;71.88;95799.69;5054125;28;20763;-86
2021/09/25 05:01:28;;;;;;;3.80;3.50;;;;;;;15.66;71.97;95799.88;5054760;28;20202;-87
2021/09/25 05:03:55;;;;;;;3.90;3.60;;;;;;;15.66;71.61;95803.28;5054866;28;20324;-87
2021/09/25 05:06:23;;;;;;;4.03;3.53;;;;;;;15.64;71.93;95801.88;5054745;28;20202;-86
2021/09/25 05:08:49;;;;;;;3.80;3.50;;;;;;;15.67;71.70;95804.88;5055280;28;20201;-85
2021/09/25 05:11:16;;;;;;;3.75;3.45;;;;;;;15.71;71.42;95805.28;5054833;28;20271;-85
2021/09/25 05:13:42;;;;;;;4.18;3.67;;;;;;;15.71;71.42;95807.88;5054916;28;20232;-88
2021/09/25 05:16:08;;;;;;;4.00;3.60;;;;;;;15.70;71.39;95811.47;5055129;28;20213;-87
2021/09/25 05:18:35;;;;;;;4.93;3.60;;;;;;;15.69;72.06;95809.88;5055142;28;20660;-85
2021/09/25 05:21:01;;;;;;;4.28;3.88;;;;;;;15.72;71.76;95810.28;5045600;28;20689;-87
2021/09/25 05:23:29;;;;;;;5.43;4.10;;;;;;;15.71;72.05;95816.47;5035318;28;20222;-86
2021/09/25 05:25:56;;;;;;;4.22;3.80;;;;;;;15.73;71.70;95806.69;5034634;28;20206;-88
2021/09/25 05:28:22;;;;;;;5.65;3.63;;;;;;;15.72;72.14;95806.88;5035083;28;20213;-88
2021/09/25 05:30:49;;;;;;;4.35;3.67;;;;;;;15.75;71.47;95806.47;5034510;28;20198;-87
2021/09/25 05:33:15;;;;;;;8.43;6.30;;;;;;;15.81;71.20;95810.84;5034802;28;20237;-88
2021/09/25 05:35:44;;;;;;;4.15;3.85;;;;;;;15.83;71.01;95821.81;5034060;28;20758;-87
2021/09/25 05:38:12;;;;;;;3.53;3.22;;;;;;;15.83;70.96;95816.63;5034879;28;20212;-88
2021/09/25 05:40:40;;;;;;;3.47;3.17;;;;;;;15.81;70.66;95813.44;5034928;28;20580;-88
2021/09/25 05:43:06;;;;;;;3.65;3.35;;;;;;;15.82;70.91;95818.44;5042040;28;20712;-87
2021/09/25 05:45:33;;;;;;;3.97;3.40;;;;;;;15.82;70.69;95818.44;5038049;28;20208;-88
2021/09/25 05:48:00;;;;;;;3.80;3.50;;;;;;;15.85;71.14;95822.41;5035531;28;20198;-88
2021/09/25 05:50:26;;;;;;;4.00;3.60;;;;;;;15.90;71.00;95814.81;5034847;28;20212;-88
2021/09/25 05:52:53;;;;;;;5.53;3.40;;;;;;;15.80;71.45;95810.03;5034884;28;20629;-88
2021/09/25 05:55:21;;;;;;;4.05;3.75;;;;;;;15.82;71.73;95807.25;5052250;28;20228;-88
2021/09/25 05:57:49;;;;;;;4.60;4.00;;;;;;;15.89;71.27;95808.03;5054963;28;20212;-88
2021/09/25 06:00:18;;;;;;;19.15;17.25;;;;;;;15.90;71.36;95809.63;5055268;28;20205;-87
2021/09/25 06:02:45;;;;;;;7.85;7.15;;;;;;;15.91;71.34;95813.81;5055275;28;20244;-87
2021/09/25 06:05:13;;;;;;;4.28;3.88;;;;;;;15.94;70.91;95823.00;5054861;28;20208;-88
2021/09/25 06:07:43;;;;;;;3.75;3.45;;;;;;;16.00;71.02;95819.56;5055308;28;20197;-88
2021/09/25 06:10:10;;;;;;;4.22;3.92;;;;;;;16.04;70.84;95813.78;5054824;28;20212;-88
2021/09/25 06:12:36;;;;;;;5.28;3.92;;;;;;;16.07;70.84;95815.97;5055154;28;20209;-86
2021/09/25 06:15:05;;;;;;;4.18;3.50;;;;;;;16.15;70.31;95822.75;5054715;28;20225;-87
2021/09/25 06:17:31;;;;;;;4.20;3.50;;;;;;;16.21;70.47;95822.72;5054954;28;20197;-86
2021/09/25 06:19:57;;;;;;;7.60;5.78;;;;;;;16.33;69.90;95814.28;5055000;28;20205;-87
2021/09/25 06:22:25;;;;;;;13.32;11.98;;;;;;;16.43;69.62;95820.63;5055489;28;20204;-86
2021/09/25 06:24:52;;;;;;;4.70;4.30;;;;;;;16.67;68.70;95829.56;5054670;28;20592;-86
2021/09/25 06:27:18;;;;;;;4.07;3.78;;;;;;;16.96;67.93;95830.75;5055071;28;20209;-87
2021/09/25 06:29:45;;;;;;;4.20;3.45;;;;;;;17.20;66.99;95824.00;5055279;28;20224;-86
2021/09/25 06:32:13;;;;;;;4.00;3.30;;;;;;;17.42;66.54;95825.25;5055010;28;20212;-87
2021/09/25 06:34:39;;;;;;;3.50;3.13;;;;;;;17.61;65.83;95832.09;5054887;28;20229;-86
2021/09/25 06:37:06;;;;;;;3.30;3.10;;;;;;;17.79;65.12;95833.94;5055719;28;20216;-84
2021/09/25 06:39:32;;;;;;;3.80;3.40;;;;;;;17.93;64.57;95827.59;5054928;28;20205;-87
2021/09/25 06:41:59;;;;;;;4.65;3.47;;;;;;;18.10;64.73;95825.19;5054860;28;20232;-87
2021/09/25 06:44:25;;;;;;;3.70;3.40;;;;;;;18.25;64.07;95820.44;5035632;28;20241;-86
2021/09/25 06:46:53;;;;;;;3.60;3.30;;;;;;;18.44;63.25;95820.44;5034788;28;20620;-86
2021/09/25 06:49:23;;;;;;;3.70;3.40;;;;;;;18.62;63.31;95810.00;5034369;28;20213;-85
2021/09/25 06:51:50;;;;;;;5.30;3.55;;;;;;;18.78;62.67;95811.19;5035213;28;20198;-88
2021/09/25 06:54:17;;;;;;;4.03;3.42;;;;;;;18.94;61.99;95795.69;5042954;28;20597;-87
2021/09/25 06:56:43;;;;;;;3.80;3.50;;;;;;;19.10;61.31;95809.09;5055167;28;20228;-87
2021/09/25 06:59:10;;;;;;;3.83;3.53;;;;;;;19.19;61.00;95802.56;5053806;28;20766;-87
2021/09/25 07:01:36;;;;;;;3.60;3.30;;;;;;;19.17;60.40;95805.38;5055348;28;20193;-87
2021/09/25 07:04:05;;;;;;;3.85;3.40;;;;;;;19.23;60.48;95807.09;5058375;28;20221;-88
2021/09/25 07:06:34;;;;;;;6.32;3.50;;;;;;;19.54;60.39;95813.06;5058355;28;20592;-88
2021/09/25 07:09:01;;;;;;;3.75;3.20;;;;;;;19.77;60.03;95812.25;5058046;28;20232;-88
2021/09/25 07:11:27;;;;;;;4.05;3.53;;;;;;;19.98;59.71;95822.13;5058713;28;20220;-86
2021/09/25 07:13:54;;;;;;;5.53;3.30;;;;;;;20.15;58.19;95817.00;5057669;28;20263;-85
2021/09/25 07:16:22;;;;;;;5.88;3.45;;;;;;;20.39;57.58;95815.94;5057802;28;20664;-86
2021/09/25 07:18:49;;;;;;;5.88;3.63;;;;;;;20.59;57.49;95820.78;5058112;28;20212;-87
2021/09/25 07:21:15;;;;;;;3.53;3.22;;;;;;;20.75;57.46;95824.47;5046503;28;20202;-86
2021/09/25 07:23:43;;;;;;;4.10;3.30;;;;;;;20.96;57.49;95818.56;5037804;28;20222;-87
2021/09/25 07:26:10;;;;;;;4.05;3.25;;;;;;;21.14;56.26;95823.59;5036898;28;20206;-86
2021/09/25 07:28:37;;;;;;;3.72;3.40;;;;;;;21.23;54.95;95826.63;5048074;28;20600;-85
2021/09/25 07:31:05;;;;;;;4.85;3.30;;;;;;;21.42;55.37;95820.13;5036682;28;20198;-86
2021/09/25 07:33:34;;;;;;;4.43;3.10;;;;;;;21.61;54.37;95824.09;5036469;28;20226;-85
2021/09/25 07:36:09;;;;;;;3.30;3.00;;;;;;;21.64;54.00;95821.00;5036838;28;20205;-86
2021/09/25 07:38:36;;;;;;;3.30;3.00;;;;;;;21.84;53.32;95830.97;5037704;28;20248;-87
2021/09/25 07:41:04;;;;;;;4.07;3.25;;;;;;;22.02;52.66;95841.22;5036921;28;20248;-86
2021/09/25 07:43:31;;;;;;;3.05;2.85;;;;;;;22.18;52.48;95850.09;5036411;28;20570;-88
2021/09/25 07:45:58;;;;;;;3.38;3.03;;;;;;;22.22;52.81;95850.41;5037037;28;20205;-86
2021/09/25 07:48:25;;;;;;;6.32;3.08;;;;;;;22.37;53.66;95837.47;5037375;28;20202;-86
2021/09/25 07:50:57;;;;;;;3.35;3.10;;;;;;;22.59;52.40;95840.09;5037056;28;20209;-86
2021/09/25 07:53:23;;;;;;;4.25;3.03;;;;;;;22.73;51.07;95836.81;5037500;28;20233;-87
2021/09/25 07:55:51;;;;;;;4.53;2.88;;;;;;;22.78;51.96;95838.75;5056470;28;20225;-86
2021/09/25 07:58:19;;;;;;;3.80;3.40;;;;;;;23.01;50.80;95842.94;5055631;28;20256;-86
2021/09/25 08:00:46;;;;;;;3.22;2.95;;;;;;;22.94;50.07;95837.88;5056214;28;20225;-86
2021/09/25 08:03:12;;;;;;;3.13;2.85;;;;;;;23.10;50.09;95844.03;5056419;28;20257;-86
2021/09/25 08:05:39;;;;;;;3.30;3.10;;;;;;;23.35;49.48;95841.66;5056395;28;20208;-86
2021/09/25 08:08:05;;;;;;;2.97;2.78;;;;;;;23.58;48.89;95837.94;5056704;28;20700;-86
2021/09/25 08:10:32;;;;;;;3.85;3.03;;;;;;;23.75;48.03;95843.84;5057434;28;20201;-87
2021/09/25 08:12:59;;;;;;;3.28;2.97;;;;;;;23.75;47.62;95837.78;5048615;28;20222;-86
2021/09/25 08:15:27;;;;;;;5.82;3.17;;;;;;;23.95;47.61;95845.00;5036001;28;20218;-87
2021/09/25 08:18:07;;;;;;;3.50;3.20;;;;;;;23.99;48.56;95843.47;5036848;28;20204;-86
2021/09/25 08:20:34;;;;;;;3.28;2.97;;;;;;;24.06;47.58;95846.63;5040663;28;20280;-86
2021/09/25 08:23:01;;;;;;;3.92;3.10;;;;;;;24.03;47.48;95841.91;5055383;28;20213;-86
2021/09/25 08:25:30;;;;;;;3.13;2.80;;;;;;;24.04;47.25;95841.66;5056247;28;20324;-86
2021/09/25 08:27:56;;;;;;;3.15;2.95;;;;;;;24.23;46.72;95844.66;5056397;28;20269;-88
2021/09/25 08:30:29;;;;;;;3.70;3.17;;;;;;;24.39;46.00;95851.59;5056740;28;20209;-87
2021/09/25 08:32:57;;;;;;;4.32;3.10;;;;;;;24.41;45.88;95853.97;5056762;28;20229;-88
2021/09/25 08:35:23;;;;;;;3.33;3.00;;;;;;;24.51;45.36;95850.56;5056550;28;20225;-88
2021/09/25 08:37:50;;;;;;;3.53;3.22;;;;;;;24.36;45.86;95857.38;5053595;28;20247;-88
2021/09/25 08:40:21;;;;;;;3.22;3.03;;;;;;;24.58;45.21;95857.19;5035675;28;20244;-89
2021/09/25 08:42:54;;;;;;;4.28;3.10;;;;;;;24.83;45.15;95859.09;5036182;28;20202;-89
2021/09/25 08:45:23;;;;;;;4.78;3.08;;;;;;;24.90;44.83;95858.88;5035769;28;20241;-88
2021/09/25 08:47:57;;;;;;;4.15;3.00;;;;;;;25.00;44.41;95859.72;5036150;28;20217;-89
2021/09/25 08:50:31;;;;;;;5.00;3.00;;;;;;;25.03;43.81;95853.91;5036469;28;20198;-88
2021/09/25 08:53:00;;;;;;;3.33;3.10;;;;;;;25.18;44.22;95849.75;5037385;28;20241;-89
2021/09/25 08:55:31;;;;;;;4.03;3.38;;;;;;;25.10;43.50;95856.31;5055127;28;20663;-88
2021/09/25 08:58:00;;;;;;;5.57;3.40;;;;;;;25.22;44.15;95856.06;5050058;28;20229;-89
2021/09/25 09:00:58;;;;;;;3.13;2.92;;;;;;;25.40;44.05;95847.66;5036591;28;20293;-88
2021/09/25 09:03:42;;;;;;;4.30;3.10;;;;;;;25.59;42.86;95847.91;5035934;28;20240;-88
2021/09/25 09:06:17;;;;;;;3.83;3.17;;;;;;;25.69;41.96;95853.22;5035770;28;20305;-89
2021/09/25 09:11:46;;;;;;;3.22;3.03;;;;;;;25.62;42.64;95847.38;5030528;28;20279;-89
2021/09/25 09:14:17;;;;;;;5.82;3.30;;;;;;;25.55;43.04;95847.66;5036247;28;20226;-89
2021/09/25 09:16:55;;;;;;;3.30;3.00;;;;;;;25.63;42.74;95841.06;5036553;28;20298;-88
2021/09/25 09:19:35;;;;;;;3.47;3.20;;;;;;;25.73;42.14;95838.44;5037414;28;20229;-87
2021/09/25 09:22:10;;;;;;;3.85;3.55;;;;;;;25.68;42.35;95833.16;5050734;28;20687;-87
2021/09/25 09:24:44;;;;;;;3.90;3.45;;;;;;;25.55;42.61;95838.94;5052869;28;20221;-88
2021/09/25 09:27:15;;;;;;;3.15;2.95;;;;;;;25.68;42.64;95830.53;5052980;28;20288;-87
2021/09/25 09:29:42;;;;;;;3.60;3.30;;;;;;;25.59;43.16;95832.09;5033304;28;20546;-88
2021/09/25 09:32:11;;;;;;;3.33;3.13;;;;;;;25.57;43.65;95836.84;5033327;28;20210;-86
2021/09/25 09:34:42;;;;;;;4.28;3.88;;;;;;;25.53;43.06;95828.66;5032320;28;20232;-87
2021/09/25 09:37:16;;;;;;;3.17;2.80;;;;;;;25.51;43.73;95828.13;5032557;28;20209;-87
2021/09/25 09:43:05;;;;;;;4.00;3.60;;;;;;;25.48;41.95;95824.19;5031347;28;20222;-87
2021/09/25 09:45:42;;;;;;;4.82;3.20;;;;;;;25.59;43.05;95821.53;5033487;28;20232;-86
2021/09/25 09:49:09;;;;;;;3.42;3.17;;;;;;;25.67;42.38;95819.19;5033186;28;20276;-87
2021/09/25 09:52:21;;;;;;;3.50;2.95;;;;;;;25.77;41.94;95818.38;4972340;28;20253;-87
2021/09/25 09:54:53;;;;;;;3.10;2.83;;;;;;;25.81;41.87;95814.13;5044032;28;20261;-87
2021/09/25 09:57:25;;;;;;;3.22;2.83;;;;;;;25.78;42.27;95814.69;5051660;28;20591;-88
2021/09/25 09:59:56;;;;;;;3.55;3.20;;;;;;;25.79;41.92;95819.69;5042440;28;20235;-87
2021/09/25 10:02:26;;;;;;;3.30;3.05;;;;;;;25.81;41.98;95825.47;5051839;28;20198;-87
2021/09/25 10:04:52;;;;;;;3.97;3.17;;;;;;;25.82;42.02;95821.00;5051831;28;20227;-87
2021/09/25 10:07:24;;;;;;;3.50;3.20;;;;;;;25.70;41.40;95820.50;5052488;28;20296;-88
2021/09/25 10:09:51;;;;;;;3.40;3.10;;;;;;;25.46;41.20;95820.22;5053348;28;20284;-87
2021/09/25 10:12:23;;;;;;;3.70;2.90;;;;;;;25.36;41.65;95812.31;5051797;28;20227;-87
2021/09/25 10:14:51;;;;;;;3.47;3.17;;;;;;;25.30;41.60;95808.09;5033040;28;20316;-87
2021/09/25 10:17:18;;;;;;;3.00;2.80;;;;;;;25.33;42.94;95810.22;5033208;28;20233;-87
2021/09/25 10:19:46;;;;;;;3.00;2.80;;;;;;;25.40;42.03;95810.75;5032503;28;20294;-87
2021/09/25 10:22:17;;;;;;;2.67;2.47;;;;;;;25.39;41.68;95809.16;5050295;28;20197;-87
2021/09/25 10:24:48;;;;;;;2.90;2.70;;;;;;;25.38;40.70;95815.50;5052313;28;20226;-87
2021/09/25 10:27:19;;;;;;;3.13;2.75;;;;;;;25.18;41.00;95810.22;5052822;28;20202;-87
2021/09/25 10:29:48;;;;;;;3.33;2.70;;;;;;;25.23;40.89;95813.63;5052188;28;20203;-87
2021/09/25 10:32:23;;;;;;;2.92;2.65;;;;;;;25.29;40.63;95812.56;5052003;28;20202;-87
2021/09/25 10:35:10;;;;;;;3.03;2.83;;;;;;;25.34;41.94;95807.31;5050677;28;20676;-86
2021/09/25 10:37:38;;;;;;;2.80;2.60;;;;;;;25.18;41.49;95797.03;5057691;28;20691;-87
2021/09/25 10:40:11;;;;;;;3.00;2.70;;;;;;;24.96;41.75;95802.53;5062462;28;20201;-87
2021/09/25 10:42:41;;;;;;;3.13;2.47;;;;;;;24.94;40.23;95801.97;5064454;28;20328;-88
2021/09/25 10:45:22;;;;;;;2.95;2.72;;;;;;;24.97;40.65;95794.38;5065563;22;20233;-86
2021/09/25 10:48:05;;;;;;;2.75;2.55;;;;;;;24.82;42.40;95790.91;5036625;28;20229;-89
2021/09/25 10:50:34;;;;;;;3.30;3.10;;;;;;;24.83;42.02;95800.34;5036852;28;20198;-88
2021/09/25 10:53:08;;;;;;;2.55;2.45;;;;;;;24.76;41.99;95795.38;5036617;28;20292;-89
2021/09/25 10:55:39;;;;;;;2.88;2.40;;;;;;;24.78;41.26;95801.97;5036343;28;20731;-89
2021/09/25 10:58:34;;;;;;;2.90;2.53;;;;;;;24.73;41.77;95796.66;5045409;28;20579;-89
2021/09/25 11:01:11;;;;;;;2.70;2.50;;;;;;;24.75;41.79;95796.41;5076855;28;20197;-89
2021/09/25 11:04:08;;;;;;;3.20;2.90;;;;;;;24.89;41.88;95791.44;5076358;28;20233;-89
2021/09/25 11:06:51;;;;;;;2.90;2.67;;;;;;;24.95;42.72;95790.41;5076356;28;20280;-88
2021/09/25 11:09:30;;;;;;;2.90;2.70;;;;;;;25.02;41.99;95788.31;5076639;28;20658;-89
2021/09/25 11:12:03;;;;;;;3.97;2.70;;;;;;;25.10;42.29;95782.53;5076748;28;20211;-89
2021/09/25 11:14:34;;;;;;;3.00;2.80;;;;;;;25.13;42.61;95780.16;5076534;28;20221;-89
2021/09/25 11:17:03;;;;;;;2.90;2.60;;;;;;;25.19;42.55;95780.97;5076587;28;20354;-89
2021/09/25 11:19:46;;;;;;;3.10;2.30;;;;;;;25.23;40.90;95776.72;5076532;28;20219;-89
2021/09/25 11:22:18;;;;;;;2.90;2.55;;;;;;;25.32;41.50;95775.16;5059343;28;20221;-89
2021/09/25 11:24:47;;;;;;;2.70;2.50;;;;;;;25.26;40.60;95773.56;5056074;28;20221;-89
2021/09/25 11:27:20;;;;;;;2.85;2.65;;;;;;;25.29;40.18;95765.13;5056155;28;20197;-89
2021/09/25 11:30:06;;;;;;;4.75;3.00;;;;;;;25.30;40.67;95763.28;5056592;28;20204;-89
2021/09/25 11:32:35;;;;;;;3.28;2.60;;;;;;;25.20;39.64;95752.75;5056402;28;20237;-89
2021/09/25 11:35:06;;;;;;;2.72;2.53;;;;;;;25.11;40.21;95755.13;5055949;28;20240;-90
2021/09/25 11:37:32;;;;;;;2.80;2.60;;;;;;;25.17;40.36;95754.06;5056250;28;20197;-88
2021/09/25 11:39:59;;;;;;;2.78;2.58;;;;;;;25.29;40.50;95754.59;5056278;28;20205;-89
2021/09/25 11:42:29;;;;;;;2.65;2.45;;;;;;;25.42;40.66;95753.25;5056123;28;20682;-88
2021/09/25 11:44:59;;;;;;;3.05;2.85;;;;;;;25.44;39.83;95735.31;5055894;28;20316;-89
2021/09/25 11:47:32;;;;;;;3.47;3.17;;;;;;;25.52;39.80;95732.16;5054369;28;20626;-88